sensor_id;sensor_type;location;lat;lon;timestamp;pressure;altitude;pressure_sealevel;temperature;humidity
23172;BME280;11754;42.664;23.594;2023-03-03T00:00:41;95527.75;;;5.32;76.93
23172;BME280;11754;42.664;23.594;2023-03-03T00:03:07;95521.44;;;5.35;76.86
23172;BME280;11754;42.664;23.594;2023-03-03T00:05:35;95525.28;;;5.30;76.95
23172;BME280;11754;42.664;23.594;2023-03-03T00:08:02;95512.34;;;5.29;77.03
23172;BME280;11754;42.664;23.594;2023-03-03T00:10:27;95516.59;;;5.30;76.95
23172;BME280;11754;42.664;23.594;2023-03-03T00:12:53;95523.63;;;5.29;76.82
23172;BME280;11754;42.664;23.594;2023-03-03T00:15:23;95512.78;;;5.34;76.88
23172;BME280;11754;42.664;23.594;2023-03-03T00:17:49;95512.34;;;5.29;76.63
23172;BME280;11754;42.664;23.594;2023-03-03T00:22:52;95512.06;;;5.32;77.28
23172;BME280;11754;42.664;23.594;2023-03-03T00:25:21;95510.44;;;5.31;77.34
23172;BME280;11754;42.664;23.594;2023-03-03T00:27:49;95504.22;;;5.32;76.62
23172;BME280;11754;42.664;23.594;2023-03-03T00:30:33;95511.81;;;5.35;76.70
23172;BME280;11754;42.664;23.594;2023-03-03T00:32:58;95503.97;;;5.35;76.90
23172;BME280;11754;42.664;23.594;2023-03-03T00:35:30;95506.59;;;5.35;76.72
23172;BME280;11754;42.664;23.594;2023-03-03T00:38:01;95510.16;;;5.34;76.95
23172;BME280;11754;42.664;23.594;2023-03-03T00:40:39;95491.41;;;5.29;77.30
23172;BME280;11754;42.664;23.594;2023-03-03T00:43:20;95496.66;;;5.29;77.66
23172;BME280;11754;42.664;23.594;2023-03-03T00:45:56;95495.28;;;5.44;77.20
23172;BME280;11754;42.664;23.594;2023-03-03T00:51:18;95487.59;;;5.43;76.99
23172;BME280;11754;42.664;23.594;2023-03-03T00:53:46;95481.84;;;5.49;76.85
23172;BME280;11754;42.664;23.594;2023-03-03T00:56:11;95477.69;;;5.46;76.87
23172;BME280;11754;42.664;23.594;2023-03-03T00:58:37;95471.06;;;5.42;77.00
23172;BME280;11754;42.664;23.594;2023-03-03T01:01:02;95458.97;;;5.41;77.11
23172;BME280;11754;42.664;23.594;2023-03-03T01:03:27;95453.19;;;5.47;76.71
23172;BME280;11754;42.664;23.594;2023-03-03T01:05:53;95466.25;;;5.47;77.16
23172;BME280;11754;42.664;23.594;2023-03-03T01:08:19;95454.00;;;5.38;77.54
23172;BME280;11754;42.664;23.594;2023-03-03T01:10:57;95449.44;;;5.40;77.09
23172;BME280;11754;42.664;23.594;2023-03-03T01:13:30;95459.38;;;5.46;77.17
23172;BME280;11754;42.664;23.594;2023-03-03T01:15:56;95455.78;;;5.47;77.55
23172;BME280;11754;42.664;23.594;2023-03-03T01:18:22;95446.84;;;5.40;76.97
23172;BME280;11754;42.664;23.594;2023-03-03T01:20:47;95451.53;;;5.46;77.47
23172;BME280;11754;42.664;23.594;2023-03-03T01:23:13;95455.97;;;5.56;77.47
23172;BME280;11754;42.664;23.594;2023-03-03T01:25:38;95455.53;;;5.60;76.82
23172;BME280;11754;42.664;23.594;2023-03-03T01:28:04;95451.28;;;5.59;76.44
23172;BME280;11754;42.664;23.594;2023-03-03T01:30:30;95439.69;;;5.62;76.74
23172;BME280;11754;42.664;23.594;2023-03-03T01:32:55;95445.91;;;5.61;76.36
23172;BME280;11754;42.664;23.594;2023-03-03T01:35:21;95436.78;;;5.55;76.14
23172;BME280;11754;42.664;23.594;2023-03-03T01:37:46;95436.94;;;5.53;76.30
23172;BME280;11754;42.664;23.594;2023-03-03T01:40:17;95432.41;;;5.56;76.64
23172;BME280;11754;42.664;23.594;2023-03-03T01:42:44;95437.78;;;5.64;76.23
23172;BME280;11754;42.664;23.594;2023-03-03T01:45:14;95435.31;;;5.72;75.71
23172;BME280;11754;42.664;23.594;2023-03-03T01:47:46;95434.75;;;5.68;76.23
23172;BME280;11754;42.664;23.594;2023-03-03T01:50:25;95438.19;;;5.69;75.87
23172;BME280;11754;42.664;23.594;2023-03-03T01:52:51;95428.44;;;5.71;75.77
23172;BME280;11754;42.664;23.594;2023-03-03T01:55:22;95436.41;;;5.79;75.48
23172;BME280;11754;42.664;23.594;2023-03-03T01:58:00;95436.69;;;5.76;75.87
23172;BME280;11754;42.664;23.594;2023-03-03T02:00:28;95429.81;;;5.75;75.96
23172;BME280;11754;42.664;23.594;2023-03-03T02:02:54;95424.03;;;5.81;76.10
23172;BME280;11754;42.664;23.594;2023-03-03T02:05:20;95415.47;;;5.79;75.31
23172;BME280;11754;42.664;23.594;2023-03-03T02:07:45;95417.41;;;5.87;75.23
23172;BME280;11754;42.664;23.594;2023-03-03T02:10:13;95426.94;;;5.97;75.23
23172;BME280;11754;42.664;23.594;2023-03-03T02:12:59;95420.44;;;6.01;74.66
23172;BME280;11754;42.664;23.594;2023-03-03T02:15:29;95433.25;;;6.05;74.96
23172;BME280;11754;42.664;23.594;2023-03-03T02:18:20;95435.19;;;6.12;74.31
23172;BME280;11754;42.664;23.594;2023-03-03T02:23:32;95430.38;;;6.08;74.20
23172;BME280;11754;42.664;23.594;2023-03-03T02:28:31;95423.91;;;5.92;74.44
23172;BME280;11754;42.664;23.594;2023-03-03T02:30:58;95427.63;;;5.99;74.56
23172;BME280;11754;42.664;23.594;2023-03-03T02:33:25;95431.34;;;6.07;74.21
23172;BME280;11754;42.664;23.594;2023-03-03T02:35:51;95425.69;;;6.01;74.44
23172;BME280;11754;42.664;23.594;2023-03-03T02:38:40;95421.16;;;6.04;74.48
23172;BME280;11754;42.664;23.594;2023-03-03T02:41:14;95430.22;;;6.09;74.29
23172;BME280;11754;42.664;23.594;2023-03-03T02:43:52;95423.47;;;6.07;74.05
23172;BME280;11754;42.664;23.594;2023-03-03T02:46:18;95422.78;;;6.05;74.26
23172;BME280;11754;42.664;23.594;2023-03-03T02:48:43;95428.19;;;6.03;74.54
23172;BME280;11754;42.664;23.594;2023-03-03T02:51:09;95427.63;;;5.99;74.60
23172;BME280;11754;42.664;23.594;2023-03-03T02:53:35;95417.81;;;6.01;74.80
23172;BME280;11754;42.664;23.594;2023-03-03T02:56:00;95418.78;;;6.00;74.56
23172;BME280;11754;42.664;23.594;2023-03-03T02:58:26;95419.63;;;6.01;74.89
23172;BME280;11754;42.664;23.594;2023-03-03T03:00:51;95420.16;;;6.05;74.48
23172;BME280;11754;42.664;23.594;2023-03-03T03:03:16;95409.13;;;6.11;73.89
23172;BME280;11754;42.664;23.594;2023-03-03T03:05:42;95405.00;;;5.98;73.97
23172;BME280;11754;42.664;23.594;2023-03-03T03:08:07;95415.47;;;5.98;74.16
23172;BME280;11754;42.664;23.594;2023-03-03T03:10:33;95413.28;;;5.94;74.23
23172;BME280;11754;42.664;23.594;2023-03-03T03:12:59;95420.44;;;6.01;74.13
23172;BME280;11754;42.664;23.594;2023-03-03T03:15:24;95420.16;;;6.05;74.13
23172;BME280;11754;42.664;23.594;2023-03-03T03:17:49;95425.41;;;6.05;74.02
23172;BME280;11754;42.664;23.594;2023-03-03T03:20:15;95415.78;;;5.95;73.95
23172;BME280;11754;42.664;23.594;2023-03-03T03:22:41;95421.28;;;5.92;74.34
23172;BME280;11754;42.664;23.594;2023-03-03T03:25:07;95410.25;;;5.89;74.02
23172;BME280;11754;42.664;23.594;2023-03-03T03:27:32;95419.88;;;5.88;74.19
23172;BME280;11754;42.664;23.594;2023-03-03T03:29:58;95404.31;;;5.87;74.31
23172;BME280;11754;42.664;23.594;2023-03-03T03:32:23;95403.47;;;5.86;74.29
23172;BME280;11754;42.664;23.594;2023-03-03T03:34:49;95412.72;;;5.90;74.42
23172;BME280;11754;42.664;23.594;2023-03-03T03:37:14;95414.66;;;5.88;74.63
23172;BME280;11754;42.664;23.594;2023-03-03T03:39:39;95408.72;;;5.86;74.74
23172;BME280;11754;42.664;23.594;2023-03-03T03:42:05;95405.94;;;5.88;74.47
23172;BME280;11754;42.664;23.594;2023-03-03T03:44:30;95395.09;;;5.83;74.72
23172;BME280;11754;42.664;23.594;2023-03-03T03:46:56;95389.03;;;5.72;74.71
23172;BME280;11754;42.664;23.594;2023-03-03T03:49:21;95390.41;;;5.76;74.99
23172;BME280;11754;42.664;23.594;2023-03-03T03:51:46;95392.88;;;5.78;75.04
23172;BME280;11754;42.664;23.594;2023-03-03T03:54:12;95379.09;;;5.76;74.69
23172;BME280;11754;42.664;23.594;2023-03-03T03:56:37;95395.09;;;5.83;74.66
23172;BME280;11754;42.664;23.594;2023-03-03T03:59:05;95391.75;;;5.90;74.19
23172;BME280;11754;42.664;23.594;2023-03-03T04:01:31;95390.13;;;5.89;74.48
23172;BME280;11754;42.664;23.594;2023-03-03T04:03:56;95386.53;;;5.90;74.11
23172;BME280;11754;42.664;23.594;2023-03-03T04:06:21;95387.38;;;6.00;74.15
23172;BME280;11754;42.664;23.594;2023-03-03T04:08:47;95392.63;;;6.00;73.86
23172;BME280;11754;42.664;23.594;2023-03-03T04:11:12;95390.00;;;6.00;74.10
23172;BME280;11754;42.664;23.594;2023-03-03T04:13:38;95385.88;;;5.88;74.33
23172;BME280;11754;42.664;23.594;2023-03-03T04:16:03;95384.66;;;5.92;74.52
23172;BME280;11754;42.664;23.594;2023-03-03T04:18:29;95388.75;;;5.85;74.47
23172;BME280;11754;42.664;23.594;2023-03-03T04:20:54;95388.16;;;5.91;74.71
23172;BME280;11754;42.664;23.594;2023-03-03T04:23:20;95383.91;;;5.90;74.75
23172;BME280;11754;42.664;23.594;2023-03-03T04:25:46;95385.75;;;5.99;74.57
23172;BME280;11754;42.664;23.594;2023-03-03T04:28:12;95391.25;;;5.96;74.54
23172;BME280;11754;42.664;23.594;2023-03-03T04:30:38;95380.50;;;5.99;74.60
23172;BME280;11754;42.664;23.594;2023-03-03T04:33:03;95386.28;;;6.03;74.57
23172;BME280;11754;42.664;23.594;2023-03-03T04:35:28;95379.38;;;6.02;74.66
23172;BME280;11754;42.664;23.594;2023-03-03T04:37:54;95379.91;;;6.06;74.42
23172;BME280;11754;42.664;23.594;2023-03-03T04:40:19;95385.59;;;6.01;74.39
23172;BME280;11754;42.664;23.594;2023-03-03T04:42:45;95377.44;;;6.04;74.35
23172;BME280;11754;42.664;23.594;2023-03-03T04:45:11;95383.22;;;6.08;74.52
23172;BME280;11754;42.664;23.594;2023-03-03T04:47:37;95379.91;;;6.06;74.37
23172;BME280;11754;42.664;23.594;2023-03-03T04:50:03;95370.84;;;6.00;74.15
23172;BME280;11754;42.664;23.594;2023-03-03T04:52:29;95375.00;;;6.03;74.33
23172;BME280;11754;42.664;23.594;2023-03-03T04:54:54;95379.13;;;5.95;74.29
23172;BME280;11754;42.664;23.594;2023-03-03T04:57:20;95383.66;;;5.93;74.68
23172;BME280;11754;42.664;23.594;2023-03-03T04:59:45;95375.53;;;5.96;74.33
23172;BME280;11754;42.664;23.594;2023-03-03T05:02:10;95372.22;;;5.94;74.33
23172;BME280;11754;42.664;23.594;2023-03-03T05:04:37;95385.97;;;5.87;75.03
23172;BME280;11754;42.664;23.594;2023-03-03T05:07:03;95384.88;;;5.89;74.57
23172;BME280;11754;42.664;23.594;2023-03-03T05:09:28;95381.75;;;5.95;74.46
23172;BME280;11754;42.664;23.594;2023-03-03T05:11:54;95382.84;;;5.93;74.73
23172;BME280;11754;42.664;23.594;2023-03-03T05:14:19;95389.88;;;5.92;74.54
23172;BME280;11754;42.664;23.594;2023-03-03T05:16:45;95383.78;;;5.82;74.93
23172;BME280;11754;42.664;23.594;2023-03-03T05:19:10;95391.66;;;5.82;74.87
23172;BME280;11754;42.664;23.594;2023-03-03T05:21:36;95394.09;;;5.84;74.99
23172;BME280;11754;42.664;23.594;2023-03-03T05:24:01;95392.75;;;5.89;74.97
23172;BME280;11754;42.664;23.594;2023-03-03T05:26:27;95388.16;;;5.91;74.98
23172;BME280;11754;42.664;23.594;2023-03-03T05:28:52;95404.47;;;6.05;74.81
23172;BME280;11754;42.664;23.594;2023-03-03T05:31:17;95407.63;;;6.08;74.75
23172;BME280;11754;42.664;23.594;2023-03-03T05:33:43;95400.31;;;6.02;74.26
23172;BME280;11754;42.664;23.594;2023-03-03T05:36:08;95404.88;;;6.10;74.41
23172;BME280;11754;42.664;23.594;2023-03-03T05:38:33;95398.38;;;6.14;74.22
23172;BME280;11754;42.664;23.594;2023-03-03T05:41:00;95402.09;;;6.11;73.82
23172;BME280;11754;42.664;23.594;2023-03-03T05:43:25;95397.03;;;6.10;74.14
23172;BME280;11754;42.664;23.594;2023-03-03T05:45:55;95403.47;;;6.15;74.06
23172;BME280;11754;42.664;23.594;2023-03-03T05:48:21;95400.56;;;6.28;74.03
23172;BME280;11754;42.664;23.594;2023-03-03T05:50:46;95399.03;;;6.35;73.46
23172;BME280;11754;42.664;23.594;2023-03-03T05:53:11;95403.84;;;6.40;72.91
23172;BME280;11754;42.664;23.594;2023-03-03T05:55:37;95399.13;;;6.53;72.97
23172;BME280;11754;42.664;23.594;2023-03-03T05:58:02;95402.66;;;6.62;72.15
23172;BME280;11754;42.664;23.594;2023-03-03T06:00:28;95386.91;;;6.71;72.13
23172;BME280;11754;42.664;23.594;2023-03-03T06:02:53;95403.25;;;6.83;71.28
23172;BME280;11754;42.664;23.594;2023-03-03T06:05:18;95398.03;;;6.83;71.44
23172;BME280;11754;42.664;23.594;2023-03-03T06:07:44;95402.56;;;6.81;71.24
23172;BME280;11754;42.664;23.594;2023-03-03T06:10:10;95390.16;;;6.83;71.06
23172;BME280;11754;42.664;23.594;2023-03-03T06:12:35;95398.41;;;6.88;70.63
23172;BME280;11754;42.664;23.594;2023-03-03T06:15:04;95397.25;;;7.01;70.81
23172;BME280;11754;42.664;23.594;2023-03-03T06:17:29;95411.22;;;7.19;70.73
23172;BME280;11754;42.664;23.594;2023-03-03T06:19:54;95401.31;;;7.13;70.00
23172;BME280;11754;42.664;23.594;2023-03-03T06:22:20;95400.53;;;7.03;69.82
23172;BME280;11754;42.664;23.594;2023-03-03T06:24:45;95392.88;;;6.91;70.02
23172;BME280;11754;42.664;23.594;2023-03-03T06:27:11;95405.25;;;6.99;70.01
23172;BME280;11754;42.664;23.594;2023-03-03T06:29:37;95409.88;;;7.15;69.65
23172;BME280;11754;42.664;23.594;2023-03-03T06:32:02;95408.97;;;7.24;69.16
23172;BME280;11754;42.664;23.594;2023-03-03T06:34:28;95405.56;;;7.41;69.24
23172;BME280;11754;42.664;23.594;2023-03-03T06:36:54;95405.56;;;7.41;68.66
23172;BME280;11754;42.664;23.594;2023-03-03T06:39:21;95409.78;;;7.52;69.07
23172;BME280;11754;42.664;23.594;2023-03-03T06:41:46;95422.84;;;7.62;68.71
23172;BME280;11754;42.664;23.594;2023-03-03T06:44:12;95413.97;;;7.63;68.48
23172;BME280;11754;42.664;23.594;2023-03-03T06:46:37;95413.16;;;7.62;67.99
23172;BME280;11754;42.664;23.594;2023-03-03T06:49:03;95423.06;;;7.68;67.86
23172;BME280;11754;42.664;23.594;2023-03-03T06:51:33;95420.75;;;7.65;67.62
23172;BME280;11754;42.664;23.594;2023-03-03T06:54:02;95426.22;;;7.54;67.81
23172;BME280;11754;42.664;23.594;2023-03-03T06:56:33;95412.78;;;7.75;67.38
23172;BME280;11754;42.664;23.594;2023-03-03T06:59:00;95417.13;;;7.84;66.83
23172;BME280;11754;42.664;23.594;2023-03-03T07:01:30;95423.38;;;7.83;66.74
23172;BME280;11754;42.664;23.594;2023-03-03T07:03:59;95423.06;;;7.86;66.32
23172;BME280;11754;42.664;23.594;2023-03-03T07:06:25;95425.38;;;7.89;66.54
23172;BME280;11754;42.664;23.594;2023-03-03T07:08:53;95423.50;;;8.00;65.66
23172;BME280;11754;42.664;23.594;2023-03-03T07:11:22;95430.78;;;8.06;65.12
23172;BME280;11754;42.664;23.594;2023-03-03T07:13:53;95426.56;;;8.13;65.04
23172;BME280;11754;42.664;23.594;2023-03-03T07:16:23;95421.84;;;8.16;64.39
23172;BME280;11754;42.664;23.594;2023-03-03T07:18:54;95419.28;;;8.07;64.83
23172;BME280;11754;42.664;23.594;2023-03-03T07:21:34;95410.34;;;8.00;64.32
23172;BME280;11754;42.664;23.594;2023-03-03T07:24:14;95417.88;;;7.94;63.96
23172;BME280;11754;42.664;23.594;2023-03-03T07:26:42;95422.22;;;7.86;64.74
23172;BME280;11754;42.664;23.594;2023-03-03T07:29:24;95417.81;;;7.86;65.30
23172;BME280;11754;42.664;23.594;2023-03-03T07:31:52;95416.25;;;7.93;65.03
23172;BME280;11754;42.664;23.594;2023-03-03T07:37:10;95423.94;;;7.59;65.32
23172;BME280;11754;42.664;23.594;2023-03-03T07:39:42;95416.81;;;7.52;66.19
23172;BME280;11754;42.664;23.594;2023-03-03T07:44:36;95421.25;;;7.87;66.36
23172;BME280;11754;42.664;23.594;2023-03-03T07:47:17;95423.34;;;8.01;64.96
23172;BME280;11754;42.664;23.594;2023-03-03T07:49:43;95419.53;;;7.95;65.45
23172;BME280;11754;42.664;23.594;2023-03-03T07:54:56;95403.00;;;7.85;65.48
23172;BME280;11754;42.664;23.594;2023-03-03T08:02:42;95413.59;;;8.11;67.45
23172;BME280;11754;42.664;23.594;2023-03-03T08:05:41;95411.38;;;8.25;65.95
23172;BME280;11754;42.664;23.594;2023-03-03T08:10:54;95391.81;;;8.19;66.30
23172;BME280;11754;42.664;23.594;2023-03-03T08:13:40;95394.03;;;8.58;65.56
23172;BME280;11754;42.664;23.594;2023-03-03T08:18:39;95406.09;;;8.95;64.39
23172;BME280;11754;42.664;23.594;2023-03-03T08:21:17;95415.78;;;8.68;62.28
23172;BME280;11754;42.664;23.594;2023-03-03T08:23:44;95396.66;;;8.58;64.43
23172;BME280;11754;42.664;23.594;2023-03-03T08:26:10;95400.03;;;8.42;63.18
23172;BME280;11754;42.664;23.594;2023-03-03T08:28:39;95400.84;;;8.42;63.90
23172;BME280;11754;42.664;23.594;2023-03-03T08:31:04;95384.44;;;8.23;64.32
23172;BME280;11754;42.664;23.594;2023-03-03T08:33:30;95379.88;;;8.33;63.20
23172;BME280;11754;42.664;23.594;2023-03-03T08:35:55;95386.16;;;8.14;64.43
23172;BME280;11754;42.664;23.594;2023-03-03T08:38:21;95396.38;;;8.17;64.45
23172;BME280;11754;42.664;23.594;2023-03-03T08:40:47;95391.13;;;8.17;64.37
23172;BME280;11754;42.664;23.594;2023-03-03T08:43:13;95391.66;;;8.47;63.84
23172;BME280;11754;42.664;23.594;2023-03-03T08:45:43;95388.78;;;8.58;62.18
23172;BME280;11754;42.664;23.594;2023-03-03T08:48:09;95392.50;;;8.73;62.28
23172;BME280;11754;42.664;23.594;2023-03-03T08:50:35;95391.91;;;8.87;61.54
23172;BME280;11754;42.664;23.594;2023-03-03T08:53:03;95393.00;;;9.19;60.44
23172;BME280;11754;42.664;23.594;2023-03-03T08:55:28;95382.63;;;9.18;60.69
23172;BME280;11754;42.664;23.594;2023-03-03T08:57:54;95384.91;;;9.63;59.02
23172;BME280;11754;42.664;23.594;2023-03-03T09:00:20;95396.44;;;10.03;57.96
23172;BME280;11754;42.664;23.594;2023-03-03T09:02:45;95392.66;;;9.97;58.02
23172;BME280;11754;42.664;23.594;2023-03-03T09:05:12;95390.50;;;10.09;57.65
23172;BME280;11754;42.664;23.594;2023-03-03T09:07:38;95393.16;;;10.33;57.35
23172;BME280;11754;42.664;23.594;2023-03-03T09:10:06;95381.88;;;10.72;55.99
23172;BME280;11754;42.664;23.594;2023-03-03T09:12:38;95377.88;;;10.93;55.21
23172;BME280;11754;42.664;23.594;2023-03-03T09:15:21;95391.59;;;11.19;54.04
23172;BME280;11754;42.664;23.594;2023-03-03T09:17:47;95376.81;;;11.02;53.39
23172;BME280;11754;42.664;23.594;2023-03-03T09:20:20;95376.34;;;11.38;53.23
23172;BME280;11754;42.664;23.594;2023-03-03T09:22:48;95366.47;;;11.86;51.42
23172;BME280;11754;42.664;23.594;2023-03-03T09:25:31;95375.69;;;12.13;50.49
23172;BME280;11754;42.664;23.594;2023-03-03T09:27:58;95371.81;;;12.00;50.39
23172;BME280;11754;42.664;23.594;2023-03-03T09:30:39;95364.75;;;11.93;50.47
23172;BME280;11754;42.664;23.594;2023-03-03T09:33:42;95370.84;;;11.70;49.96
23172;BME280;11754;42.664;23.594;2023-03-03T09:36:34;95372.13;;;11.74;50.77
23172;BME280;11754;42.664;23.594;2023-03-03T09:39:21;95360.75;;;11.97;49.51
23172;BME280;11754;42.664;23.594;2023-03-03T09:47:46;95368.88;;;11.10;51.15
23172;BME280;11754;42.664;23.594;2023-03-03T09:50:39;95356.50;;;10.71;51.90
23172;BME280;11754;42.664;23.594;2023-03-03T09:55:52;95358.50;;;11.94;50.65
23172;BME280;11754;42.664;23.594;2023-03-03T10:04:14;95365.09;;;12.80;46.62
23172;BME280;11754;42.664;23.594;2023-03-03T10:14:52;95354.84;;;12.47;48.11
23172;BME280;11754;42.664;23.594;2023-03-03T10:20:01;95346.50;;;12.59;47.42
23172;BME280;11754;42.664;23.594;2023-03-03T10:22:45;95347.78;;;12.10;48.61
23172;BME280;11754;42.664;23.594;2023-03-03T10:25:37;95347.63;;;11.89;49.05
23172;BME280;11754;42.664;23.594;2023-03-03T10:33:52;95338.34;;;12.90;48.83
23172;BME280;11754;42.664;23.594;2023-03-03T10:39:05;95334.97;;;13.11;47.30
23172;BME280;11754;42.664;23.594;2023-03-03T10:41:56;95326.56;;;13.80;45.97
23172;BME280;11754;42.664;23.594;2023-03-03T11:00:48;95305.78;;;14.33;44.80
23172;BME280;11754;42.664;23.594;2023-03-03T11:06:05;95301.94;;;14.35;43.55
23172;BME280;11754;42.664;23.594;2023-03-03T11:11:43;95285.75;;;14.93;41.96
23172;BME280;11754;42.664;23.594;2023-03-03T11:14:42;95294.44;;;14.46;42.87
23172;BME280;11754;42.664;23.594;2023-03-03T11:25:36;95265.22;;;14.74;42.75
23172;BME280;11754;42.664;23.594;2023-03-03T11:36:22;95263.59;;;14.73;42.92
23172;BME280;11754;42.664;23.594;2023-03-03T11:38:51;95257.16;;;14.95;43.14
23172;BME280;11754;42.664;23.594;2023-03-03T11:41:38;95262.53;;;15.08;42.95
23172;BME280;11754;42.664;23.594;2023-03-03T11:44:13;95259.47;;;15.11;43.07
23172;BME280;11754;42.664;23.594;2023-03-03T11:49:15;95249.75;;;14.84;43.54
23172;BME280;11754;42.664;23.594;2023-03-03T11:51:47;95254.69;;;14.87;44.05
23172;BME280;11754;42.664;23.594;2023-03-03T11:54:30;95250.03;;;14.54;44.61
23172;BME280;11754;42.664;23.594;2023-03-03T11:57:15;95247.09;;;14.14;45.42
23172;BME280;11754;42.664;23.594;2023-03-03T12:02:54;95269.25;;;14.00;46.10
23172;BME280;11754;42.664;23.594;2023-03-03T12:05:41;95268.63;;;13.77;47.14
23172;BME280;11754;42.664;23.594;2023-03-03T12:08:37;95246.72;;;13.89;46.69
23172;BME280;11754;42.664;23.594;2023-03-03T12:34:59;95262.94;;;12.49;51.21
23172;BME280;11754;42.664;23.594;2023-03-03T12:37:52;95265.78;;;12.48;52.27
23172;BME280;11754;42.664;23.594;2023-03-03T12:43:28;95270.44;;;11.70;54.90
23172;BME280;11754;42.664;23.594;2023-03-03T12:48:44;95269.38;;;11.11;58.29
23172;BME280;11754;42.664;23.594;2023-03-03T12:56:37;95273.28;;;10.61;59.71
23172;BME280;11754;42.664;23.594;2023-03-03T12:59:13;95268.59;;;10.71;60.46
23172;BME280;11754;42.664;23.594;2023-03-03T13:06:58;95262.31;;;10.80;60.36
23172;BME280;11754;42.664;23.594;2023-03-03T13:15:02;95259.25;;;10.68;61.54
23172;BME280;11754;42.664;23.594;2023-03-03T13:17:56;95248.91;;;10.90;60.68
23172;BME280;11754;42.664;23.594;2023-03-03T13:26:02;95250.53;;;11.22;59.96
23172;BME280;11754;42.664;23.594;2023-03-03T13:31:20;95253.22;;;11.37;59.74
23172;BME280;11754;42.664;23.594;2023-03-03T13:33:53;95257.66;;;11.59;58.47
23172;BME280;11754;42.664;23.594;2023-03-03T13:36:24;95259.53;;;11.73;58.03
23172;BME280;11754;42.664;23.594;2023-03-03T13:38:56;95257.41;;;11.92;58.17
23172;BME280;11754;42.664;23.594;2023-03-03T13:44:13;95250.84;;;11.88;59.02
23172;BME280;11754;42.664;23.594;2023-03-03T13:46:52;95259.63;;;12.03;58.24
23172;BME280;11754;42.664;23.594;2023-03-03T13:52:09;95248.69;;;12.06;57.44
23172;BME280;11754;42.664;23.594;2023-03-03T14:00:06;95258.78;;;11.88;59.12
23172;BME280;11754;42.664;23.594;2023-03-03T14:16:42;95259.66;;;12.62;58.57
23172;BME280;11754;42.664;23.594;2023-03-03T14:19:16;95248.16;;;12.55;58.63
23172;BME280;11754;42.664;23.594;2023-03-03T14:22:03;95257.28;;;12.38;58.74
23172;BME280;11754;42.664;23.594;2023-03-03T14:24:30;95257.53;;;12.28;59.30
23172;BME280;11754;42.664;23.594;2023-03-03T14:26:58;95250.63;;;12.12;58.96
23172;BME280;11754;42.664;23.594;2023-03-03T14:31:52;95254.03;;;11.60;60.00
23172;BME280;11754;42.664;23.594;2023-03-03T14:34:38;95251.09;;;11.55;60.30
23172;BME280;11754;42.664;23.594;2023-03-03T14:37:21;95238.16;;;11.60;59.83
23172;BME280;11754;42.664;23.594;2023-03-03T14:39:59;95248.75;;;11.60;59.39
23172;BME280;11754;42.664;23.594;2023-03-03T14:42:36;95246.41;;;11.65;59.51
23172;BME280;11754;42.664;23.594;2023-03-03T14:45:31;95233.91;;;11.59;59.94
23172;BME280;11754;42.664;23.594;2023-03-03T14:47:58;95239.44;;;11.64;59.51
23172;BME280;11754;42.664;23.594;2023-03-03T14:50:38;95231.34;;;11.51;59.86
23172;BME280;11754;42.664;23.594;2023-03-03T14:53:10;95248.41;;;11.40;59.76
23172;BME280;11754;42.664;23.594;2023-03-03T14:55:38;95245.59;;;11.19;59.96
23172;BME280;11754;42.664;23.594;2023-03-03T14:58:23;95247.28;;;11.12;59.98
23172;BME280;11754;42.664;23.594;2023-03-03T15:00:50;95240.59;;;11.01;60.30
23172;BME280;11754;42.664;23.594;2023-03-03T15:03:28;95239.38;;;10.80;60.59
23172;BME280;11754;42.664;23.594;2023-03-03T15:05:56;95235.53;;;10.60;61.22
23172;BME280;11754;42.664;23.594;2023-03-03T15:08:35;95250.44;;;10.45;61.83
23172;BME280;11754;42.664;23.594;2023-03-03T15:13:41;95254.75;;;10.38;62.43
23172;BME280;11754;42.664;23.594;2023-03-03T15:16:18;95255.44;;;10.31;63.18
23172;BME280;11754;42.664;23.594;2023-03-03T15:21:28;95248.22;;;10.01;63.31
23172;BME280;11754;42.664;23.594;2023-03-03T15:24:20;95243.63;;;10.03;63.96
23172;BME280;11754;42.664;23.594;2023-03-03T15:27:03;95249.19;;;10.08;63.85
23172;BME280;11754;42.664;23.594;2023-03-03T15:29:36;95256.44;;;10.14;63.56
23172;BME280;11754;42.664;23.594;2023-03-03T15:32:27;95247.88;;;10.12;63.36
23172;BME280;11754;42.664;23.594;2023-03-03T15:37:55;95248.84;;;10.19;63.44
23172;BME280;11754;42.664;23.594;2023-03-03T15:40:35;95255.94;;;10.02;63.29
23172;BME280;11754;42.664;23.594;2023-03-03T15:56:27;95270.66;;;9.64;64.81
23172;BME280;11754;42.664;23.594;2023-03-03T16:02:02;95270.34;;;9.67;65.32
23172;BME280;11754;42.664;23.594;2023-03-03T16:04:35;95263.09;;;9.69;65.34
23172;BME280;11754;42.664;23.594;2023-03-03T16:20:08;95287.97;;;8.83;70.45
23172;BME280;11754;42.664;23.594;2023-03-03T16:28:04;95291.69;;;8.56;70.97
23172;BME280;11754;42.664;23.594;2023-03-03T16:33:17;95297.06;;;8.47;71.79
23172;BME280;11754;42.664;23.594;2023-03-03T16:35:50;95292.47;;;8.49;72.06
23172;BME280;11754;42.664;23.594;2023-03-03T16:38:26;95293.47;;;8.48;72.05
23172;BME280;11754;42.664;23.594;2023-03-03T16:41:00;95297.41;;;8.52;71.86
23172;BME280;11754;42.664;23.594;2023-03-03T16:43:48;95308.59;;;8.54;72.17
23172;BME280;11754;42.664;23.594;2023-03-03T16:46:37;95306.59;;;8.48;72.44
23172;BME280;11754;42.664;23.594;2023-03-03T16:49:19;95315.13;;;8.50;71.55
23172;BME280;11754;42.664;23.594;2023-03-03T16:52:10;95320.06;;;8.45;71.87
23172;BME280;11754;42.664;23.594;2023-03-03T16:54:56;95321.75;;;8.36;72.14
23172;BME280;11754;42.664;23.594;2023-03-03T17:00:22;95331.41;;;8.27;72.24
23172;BME280;11754;42.664;23.594;2023-03-03T17:05:36;95338.28;;;8.20;72.78
23172;BME280;11754;42.664;23.594;2023-03-03T17:10:47;95338.88;;;8.14;72.20
23172;BME280;11754;42.664;23.594;2023-03-03T17:35:05;95344.84;;;7.72;75.40
23172;BME280;11754;42.664;23.594;2023-03-03T17:37:46;95345.94;;;7.69;76.01
23172;BME280;11754;42.664;23.594;2023-03-03T17:40:36;95355.34;;;7.72;75.79